createdAt,value
2023-05-08T00:00:24.000Z,83.9
2023-05-08T00:03:08.000Z,83.5
2023-05-08T00:05:53.000Z,83.8
2023-05-08T00:08:38.000Z,84.2
2023-05-08T00:11:22.000Z,84.4
2023-05-08T00:12:40.000Z,84.2
2023-05-08T00:14:07.000Z,84.3
2023-05-08T00:16:51.000Z,84.4
2023-05-08T00:19:36.000Z,84.2
2023-05-08T00:22:21.000Z,84.9
2023-05-08T00:25:05.000Z,84.3
2023-05-08T00:27:50.000Z,84.7
2023-05-08T00:30:35.000Z,84.8
2023-05-08T00:33:19.000Z,84.9
2023-05-08T00:36:04.000Z,84.8
2023-05-08T00:38:49.000Z,85.2
2023-05-08T00:40:06.000Z,86
2023-05-08T00:41:33.000Z,85.8
2023-05-08T00:44:18.000Z,85.8
2023-05-08T00:47:03.000Z,85.4
2023-05-08T00:49:47.000Z,85.6
2023-05-08T00:52:32.000Z,85.7
2023-05-08T00:55:16.000Z,85.4
2023-05-08T00:58:01.000Z,85.8
2023-05-08T01:00:46.000Z,86.5
2023-05-08T01:03:30.000Z,85.9
2023-05-08T01:06:15.000Z,85.9
2023-05-08T01:07:33.000Z,85.7
2023-05-08T01:09:00.000Z,85.7
2023-05-08T01:11:44.000Z,86.1
2023-05-08T01:14:29.000Z,86
2023-05-08T01:17:14.000Z,86.5
2023-05-08T01:19:58.000Z,86.8
2023-05-08T01:22:43.000Z,86.6
2023-05-08T01:25:27.000Z,87.2
2023-05-08T01:28:12.000Z,86.7
2023-05-08T01:30:57.000Z,87.2
2023-05-08T01:33:41.000Z,87.4
2023-05-08T01:34:59.000Z,87.1
2023-05-08T01:36:26.000Z,87.4
2023-05-08T01:39:11.000Z,87.3
2023-05-08T01:41:55.000Z,87.6
2023-05-08T01:44:40.000Z,87.4
2023-05-08T01:47:25.000Z,88.2
2023-05-08T01:50:09.000Z,88.3
2023-05-08T01:52:54.000Z,88.1
2023-05-08T01:55:39.000Z,88.4
2023-05-08T01:58:23.664Z,88.3
2023-05-08T02:01:08.000Z,88.6
2023-05-08T02:02:26.000Z,88.6
2023-05-08T02:03:52.000Z,88.5
2023-05-08T02:06:37.000Z,88.7
2023-05-08T02:09:22.000Z,89.3
2023-05-08T02:12:06.000Z,89.8
2023-05-08T02:14:51.000Z,89.9
2023-05-08T02:17:36.000Z,90
2023-05-08T02:20:20.000Z,90
2023-05-08T02:23:05.000Z,90.2
2023-05-08T02:25:50.000Z,90.3
2023-05-08T02:28:34.000Z,90
2023-05-08T02:29:52.000Z,90.2
2023-05-08T02:31:19.000Z,90.2
2023-05-08T02:34:03.000Z,89.9
2023-05-08T02:36:48.000Z,90.2
2023-05-08T02:39:33.000Z,90
2023-05-08T02:42:17.000Z,90.3
2023-05-08T02:45:02.000Z,90.7
2023-05-08T02:47:47.000Z,90.7
2023-05-08T02:50:31.000Z,90.9
2023-05-08T02:53:16.000Z,90.9
2023-05-08T02:56:01.000Z,91.2
2023-05-08T02:57:19.000Z,90.1
2023-05-08T02:58:45.000Z,90.3
2023-05-08T03:01:30.000Z,90.3
2023-05-08T03:04:15.000Z,90.5
2023-05-08T03:06:59.000Z,91
2023-05-08T03:09:44.000Z,91
2023-05-08T03:12:28.000Z,91.5
2023-05-08T03:15:13.000Z,91.8
2023-05-08T03:17:58.000Z,91.7
2023-05-08T03:20:42.000Z,91.6
2023-05-08T03:23:27.000Z,91.5
2023-05-08T03:24:45.000Z,90.9
2023-05-08T03:26:12.000Z,91.1
2023-05-08T03:28:56.000Z,91.3
2023-05-08T03:31:41.000Z,91.1
2023-05-08T03:34:26.000Z,91.3
2023-05-08T03:37:10.000Z,92
2023-05-08T03:39:55.000Z,92.1
2023-05-08T03:42:40.000Z,92
2023-05-08T03:45:24.000Z,92.2
2023-05-08T03:48:25.000Z,92.1
2023-05-08T03:51:10.000Z,92
2023-05-08T03:52:28.000Z,91.5
2023-05-08T03:53:54.000Z,91.8
2023-05-08T03:56:39.000Z,92.2
2023-05-08T03:59:24.000Z,92.1
2023-05-08T04:02:08.000Z,91.5
2023-05-08T04:04:53.000Z,91.8
2023-05-08T04:07:38.000Z,92.1
2023-05-08T04:10:22.000Z,92.1
2023-05-08T04:13:07.000Z,91.8
2023-05-08T04:15:52.000Z,91.9
2023-05-08T04:18:36.000Z,92
2023-05-08T04:19:54.000Z,91.7
2023-05-08T04:21:21.000Z,91.3
2023-05-08T04:24:05.000Z,91.2
2023-05-08T04:26:50.000Z,91.5
2023-05-08T04:29:35.000Z,91.1
2023-05-08T04:32:19.000Z,90.8
2023-05-08T04:35:04.000Z,90.5
2023-05-08T04:37:49.000Z,90
2023-05-08T04:40:33.000Z,90.2
2023-05-08T04:43:18.000Z,90.5
2023-05-08T04:46:03.000Z,90.1
2023-05-08T04:47:20.000Z,89.7
2023-05-08T04:48:47.000Z,89
2023-05-08T04:51:32.000Z,88.3
2023-05-08T04:54:17.000Z,87.9
2023-05-08T04:57:01.000Z,87.6
2023-05-08T04:59:46.000Z,87.6
2023-05-08T05:02:30.000Z,86.9
2023-05-08T05:05:15.000Z,85.3
2023-05-08T05:08:00.000Z,84.2
2023-05-08T05:10:44.000Z,85.3
2023-05-08T05:13:29.000Z,85.7
2023-05-08T05:14:47.000Z,86.1
2023-05-08T05:16:14.000Z,86
2023-05-08T05:18:58.000Z,87.4
2023-05-08T05:21:43.000Z,87.7
2023-05-08T05:24:28.000Z,87.1
2023-05-08T05:27:12.000Z,86.6
2023-05-08T05:29:57.000Z,87.7
2023-05-08T05:32:42.000Z,86.3
2023-05-08T05:35:26.000Z,86.7
2023-05-08T05:38:11.000Z,86.8
2023-05-08T05:40:55.000Z,87.1
2023-05-08T05:42:13.000Z,86.8
2023-05-08T05:43:40.000Z,87.2
2023-05-08T05:46:25.000Z,87.8
2023-05-08T05:49:09.000Z,87.9
2023-05-08T05:51:54.000Z,87.1
2023-05-08T05:54:39.000Z,87.3
2023-05-08T05:57:23.000Z,88.4
2023-05-08T06:00:08.000Z,87.2
2023-05-08T06:02:53.000Z,87.6
2023-05-08T06:05:37.000Z,88.4
2023-05-08T06:08:22.000Z,87.5
2023-05-08T06:09:40.000Z,87.3
2023-05-08T06:11:06.000Z,87.4
2023-05-08T06:13:51.000Z,86.9
2023-05-08T06:16:36.000Z,87.2
2023-05-08T06:19:20.000Z,88
2023-05-08T06:22:05.000Z,88
2023-05-08T06:24:50.000Z,87.2
2023-05-08T06:27:34.000Z,87.9
2023-05-08T06:30:19.000Z,86.1
2023-05-08T06:33:04.000Z,85.8
2023-05-08T06:35:48.000Z,85.5
2023-05-08T06:37:06.000Z,86.7
2023-05-08T06:38:33.000Z,86.5
2023-05-08T06:41:18.000Z,85.6
2023-05-08T06:44:02.000Z,86.6
2023-05-08T06:46:47.000Z,86.6
2023-05-08T06:49:31.000Z,86.1
2023-05-08T06:52:16.000Z,86.3
2023-05-08T06:55:01.000Z,86.1
2023-05-08T06:57:45.000Z,86
2023-05-08T07:00:30.000Z,84.7
2023-05-08T07:03:15.000Z,83.6
2023-05-08T07:04:32.000Z,84.6
2023-05-08T07:05:59.000Z,84
2023-05-08T07:08:44.000Z,84.2
2023-05-08T07:11:29.000Z,82.9
2023-05-08T07:14:13.000Z,83
2023-05-08T07:16:58.000Z,82.5
2023-05-08T07:19:42.000Z,83.4
2023-05-08T07:22:27.000Z,83
2023-05-08T07:25:12.000Z,81.9
2023-05-08T07:27:56.000Z,83.3
2023-05-08T07:30:41.000Z,82.6
2023-05-08T07:31:59.000Z,82.7
2023-05-08T07:33:26.000Z,83
2023-05-08T07:36:10.000Z,82.8
2023-05-08T07:38:55.000Z,81.7
2023-05-08T07:41:40.000Z,81.6
2023-05-08T07:44:24.000Z,79.2
2023-05-08T07:47:09.000Z,80.2
2023-05-08T07:49:54.000Z,79.1
2023-05-08T07:52:38.000Z,81
2023-05-08T07:55:23.000Z,80
2023-05-08T07:58:07.000Z,79.3
2023-05-08T07:59:25.000Z,79.1
2023-05-08T08:00:52.000Z,79
2023-05-08T08:03:37.000Z,78
2023-05-08T08:06:21.000Z,76.7
2023-05-08T08:09:06.000Z,78
2023-05-08T08:11:51.000Z,77.1
2023-05-08T08:14:35.000Z,76.1
2023-05-08T08:17:20.000Z,77.5
2023-05-08T08:20:05.000Z,78.3
2023-05-08T08:22:49.000Z,78
2023-05-08T08:25:34.000Z,75.2
2023-05-08T08:26:52.000Z,73.1
2023-05-08T08:28:18.000Z,74.5
2023-05-08T08:31:03.000Z,74.8
2023-05-08T08:33:48.000Z,74.7
2023-05-08T08:36:32.000Z,73.3
2023-05-08T08:39:17.000Z,76
2023-05-08T08:42:02.000Z,75.4
2023-05-08T08:44:46.000Z,75.4
2023-05-08T08:47:31.000Z,76.2
2023-05-08T08:50:16.000Z,75.5
2023-05-08T08:53:00.000Z,75.9
2023-05-08T08:54:18.000Z,74.5
2023-05-08T08:55:45.000Z,75.5
2023-05-08T08:58:30.000Z,76.4
2023-05-08T09:01:14.000Z,75.3
2023-05-08T09:03:59.000Z,77.5
2023-05-08T09:06:43.000Z,77.2
2023-05-08T09:12:13.000Z,75.5
2023-05-08T09:14:57.000Z,74.7
2023-05-08T09:17:42.000Z,74.4
2023-05-08T09:20:27.000Z,75.5
2023-05-08T09:21:45.000Z,73.9
2023-05-08T09:23:11.000Z,72.9
2023-05-08T09:25:56.000Z,72.1
2023-05-08T09:28:41.000Z,71.7
2023-05-08T09:31:25.000Z,72.1
2023-05-08T09:34:10.000Z,71.7
2023-05-08T09:36:55.000Z,71.2
2023-05-08T09:39:39.000Z,69.2
2023-05-08T09:42:24.000Z,69.3
2023-05-08T09:45:08.000Z,69.5
2023-05-08T09:47:53.000Z,68.9
2023-05-08T09:49:11.000Z,67.8
2023-05-08T09:50:38.000Z,67
2023-05-08T09:53:22.000Z,67
2023-05-08T09:56:07.000Z,68.6
2023-05-08T09:58:52.000Z,67.3
2023-05-08T10:01:36.000Z,68
2023-05-08T10:04:21.000Z,70.9
2023-05-08T10:07:06.000Z,72.7
2023-05-08T10:09:50.000Z,72.4
2023-05-08T10:12:35.000Z,72.6
2023-05-08T10:15:19.000Z,71
2023-05-08T10:16:37.000Z,72.8
2023-05-08T10:18:04.000Z,71.6
2023-05-08T10:20:49.000Z,71.5
2023-05-08T10:23:33.000Z,70.7
2023-05-08T10:26:18.000Z,69.6
2023-05-08T10:29:03.000Z,69.3
2023-05-08T10:31:47.000Z,70.3
2023-05-08T10:34:32.000Z,71.7
2023-05-08T10:37:17.000Z,72.8
2023-05-08T10:40:01.000Z,74
2023-05-08T10:42:46.000Z,72.4
2023-05-08T10:44:04.000Z,72.4
2023-05-08T10:45:31.000Z,72.6
2023-05-08T10:48:15.000Z,71.3
2023-05-08T10:51:00.000Z,72.1
2023-05-08T10:53:44.000Z,71.9
2023-05-08T10:56:29.000Z,73.5
2023-05-08T10:59:14.000Z,75.9
2023-05-08T11:01:58.000Z,74.1
2023-05-08T11:04:43.000Z,75.3
2023-05-08T11:07:28.000Z,75.5
2023-05-08T11:10:12.000Z,74.2
2023-05-08T11:11:30.000Z,74.1
2023-05-08T11:12:57.000Z,72.3
2023-05-08T11:15:42.000Z,73.7
2023-05-08T11:18:26.000Z,71.2
2023-05-08T11:21:11.000Z,69.9
2023-05-08T11:23:55.000Z,70
2023-05-08T11:26:40.000Z,66.8
2023-05-08T11:29:25.000Z,68
2023-05-08T11:32:09.000Z,69
2023-05-08T11:34:54.000Z,71.1
2023-05-08T11:37:39.000Z,71.6
2023-05-08T11:38:57.000Z,72.5
2023-05-08T11:40:23.000Z,71.2
2023-05-08T11:43:08.000Z,72.1
2023-05-08T11:45:53.000Z,70.7
2023-05-08T11:48:37.000Z,71.3
2023-05-08T11:51:22.000Z,72.4
2023-05-08T11:54:07.000Z,72.9
2023-05-08T11:56:51.000Z,74.7
2023-05-08T11:59:36.000Z,74.5
2023-05-08T12:02:20.000Z,73.2
2023-05-08T12:05:05.000Z,70.8
2023-05-08T12:06:23.000Z,72.5
2023-05-08T12:07:50.000Z,72.3
2023-05-08T12:10:34.000Z,70.4
2023-05-08T12:13:19.000Z,65.9
2023-05-08T12:16:04.000Z,65.6
2023-05-08T12:18:48.000Z,66.1
2023-05-08T12:21:49.000Z,68.9
2023-05-08T12:24:34.000Z,70.5
2023-05-08T12:27:19.000Z,70.9
2023-05-08T12:30:03.000Z,70.2
2023-05-08T12:32:48.000Z,66.5
2023-05-08T12:34:06.000Z,65.9
2023-05-08T12:35:33.000Z,68.3
2023-05-08T12:38:17.000Z,67.6
2023-05-08T12:41:02.000Z,66.2
2023-05-08T12:43:46.000Z,67.5
2023-05-08T12:46:31.000Z,64.7
2023-05-08T12:49:16.000Z,65.5
2023-05-08T12:52:00.000Z,61.7
2023-05-08T12:54:45.000Z,66
2023-05-08T12:57:30.000Z,66.5
2023-05-08T13:00:14.000Z,65.8
2023-05-08T13:01:32.000Z,67.6
2023-05-08T13:02:59.000Z,67.4
2023-05-08T13:05:44.000Z,69
2023-05-08T13:08:28.000Z,70
2023-05-08T13:11:13.000Z,67.7
2023-05-08T13:13:58.000Z,69.4
2023-05-08T13:16:42.000Z,71.3
2023-05-08T13:19:27.000Z,69.4
2023-05-08T13:22:11.000Z,72.1
2023-05-08T13:24:56.000Z,72.3
2023-05-08T13:27:41.000Z,73.3
2023-05-08T13:28:58.000Z,70.7
2023-05-08T13:30:25.000Z,72.1
2023-05-08T13:33:10.000Z,72.3
2023-05-08T13:35:55.000Z,72.8
2023-05-08T13:38:39.000Z,72.8
2023-05-08T13:41:24.000Z,73.1
2023-05-08T13:44:09.000Z,72.7
2023-05-08T13:46:53.000Z,72.7
2023-05-08T13:49:38.000Z,71.8
2023-05-08T13:52:22.000Z,74.9
2023-05-08T13:55:07.000Z,76.9
2023-05-08T13:56:25.000Z,77.3
2023-05-08T13:57:52.000Z,78.4
2023-05-08T14:00:36.000Z,78.2
2023-05-08T14:03:21.000Z,79.6
2023-05-08T14:06:06.000Z,78.5
2023-05-08T14:08:50.000Z,74.8
2023-05-08T14:11:35.000Z,75.1
2023-05-08T14:14:20.000Z,77.2
2023-05-08T14:17:04.000Z,77.7
2023-05-08T14:19:49.000Z,78.4
2023-05-08T14:22:34.000Z,80.8
2023-05-08T14:23:51.000Z,78.9
2023-05-08T14:25:18.000Z,79
2023-05-08T14:28:03.000Z,78.2
2023-05-08T14:30:47.000Z,76.3
2023-05-08T14:33:32.000Z,77.5
2023-05-08T14:36:17.000Z,77.3
2023-05-08T14:39:01.000Z,76.8
2023-05-08T14:41:46.000Z,76
2023-05-08T14:44:31.000Z,75.1
2023-05-08T14:47:15.000Z,75.5
2023-05-08T14:50:00.000Z,73.5
2023-05-08T14:51:18.000Z,74.5
2023-05-08T14:52:45.000Z,75.5
2023-05-08T14:55:29.000Z,75.2
2023-05-08T14:58:14.000Z,73
2023-05-08T15:00:58.000Z,73.2
2023-05-08T15:03:43.000Z,72.1
2023-05-08T15:06:28.000Z,72.8
2023-05-08T15:09:12.000Z,69.8
2023-05-08T15:11:57.000Z,70.3
2023-05-08T15:14:42.000Z,72.1
2023-05-08T15:17:26.000Z,74.2
2023-05-08T15:18:44.000Z,73.5
2023-05-08T15:20:11.000Z,74.9
2023-05-08T15:22:56.000Z,74.6
2023-05-08T15:25:40.000Z,72.7
2023-05-08T15:28:25.000Z,72.2
2023-05-08T15:31:10.000Z,73.7
2023-05-08T15:33:54.000Z,75.1
2023-05-08T15:36:39.000Z,75.6
2023-05-08T15:39:23.000Z,75
2023-05-08T15:42:08.000Z,73
2023-05-08T15:44:53.000Z,73.7
2023-05-08T15:46:11.000Z,73.9
2023-05-08T15:47:37.000Z,73.7
2023-05-08T15:50:22.000Z,74.8
2023-05-08T15:53:07.000Z,74.6
2023-05-08T15:55:51.000Z,74.5
2023-05-08T15:58:36.000Z,76.6
2023-05-08T16:01:21.000Z,77
2023-05-08T16:04:05.000Z,75.4
2023-05-08T16:06:50.000Z,76.8
2023-05-08T16:09:34.000Z,77.1
2023-05-08T16:12:19.000Z,76.3
2023-05-08T16:13:37.000Z,75.9
2023-05-08T16:15:04.000Z,77.1
2023-05-08T16:17:48.000Z,77.2
2023-05-08T16:20:33.000Z,77.4
2023-05-08T16:23:18.000Z,76.8
2023-05-08T16:26:02.000Z,78.1
2023-05-08T16:28:47.000Z,76.5
2023-05-08T16:31:32.000Z,74.7
2023-05-08T16:34:16.000Z,76.5
2023-05-08T16:37:01.000Z,76.9
2023-05-08T16:39:46.000Z,78
2023-05-08T16:41:03.000Z,77.3
2023-05-08T16:42:30.000Z,77.6
2023-05-08T16:45:15.000Z,78.6
2023-05-08T16:47:59.000Z,78.9
2023-05-08T16:50:44.000Z,76.5
2023-05-08T16:53:29.000Z,78.6
2023-05-08T16:56:13.000Z,79
2023-05-08T16:58:58.000Z,79.2
2023-05-08T17:01:43.000Z,76.4
2023-05-08T17:04:27.000Z,77.2
2023-05-08T17:07:12.000Z,78.2
2023-05-08T17:08:30.000Z,78.1
2023-05-08T17:09:57.000Z,78.8
2023-05-08T17:12:41.000Z,75.5
2023-05-08T17:15:26.000Z,76.7
2023-05-08T17:18:11.000Z,77.3
2023-05-08T17:20:55.000Z,77.7
2023-05-08T17:23:40.000Z,75.7
2023-05-08T17:26:24.000Z,77.4
2023-05-08T17:29:09.000Z,77.3
2023-05-08T17:31:54.000Z,78.5
2023-05-08T17:34:38.000Z,78.9
2023-05-08T17:35:56.000Z,79.9
2023-05-08T17:37:23.000Z,80.1
2023-05-08T17:40:08.000Z,80.6
2023-05-08T17:42:52.000Z,82.5
2023-05-08T17:45:37.000Z,82.3
2023-05-08T17:48:22.000Z,83.3
2023-05-08T17:51:06.000Z,83.9
2023-05-08T17:53:51.000Z,83.6
2023-05-08T17:56:35.000Z,83.3
2023-05-08T17:59:20.000Z,84.6
2023-05-08T18:02:05.000Z,84.1
2023-05-08T18:03:23.000Z,84.5
2023-05-08T18:04:49.000Z,84.4
2023-05-08T18:07:34.000Z,84.8
2023-05-08T18:10:19.000Z,84.9
2023-05-08T18:13:03.000Z,85.8
2023-05-08T18:15:48.000Z,85.7
2023-05-08T18:18:33.000Z,85.8
2023-05-08T18:21:17.000Z,86
2023-05-08T18:24:02.000Z,85.3
2023-05-08T18:26:47.000Z,85.5
2023-05-08T18:29:31.000Z,87.1
2023-05-08T18:30:49.000Z,87.5
2023-05-08T18:32:16.000Z,87.8
2023-05-08T18:35:00.000Z,87.7
2023-05-08T18:37:45.000Z,88.1
2023-05-08T18:40:30.000Z,88.3
2023-05-08T18:43:14.000Z,88.3
2023-05-08T18:45:59.000Z,89.3
2023-05-08T18:48:44.000Z,89.8
2023-05-08T18:51:28.000Z,89.7
2023-05-08T18:54:13.000Z,89.8
2023-05-08T18:56:58.000Z,89.9
2023-05-08T18:58:16.000Z,91.1
2023-05-08T18:59:42.000Z,92.1
2023-05-08T19:02:27.000Z,92.2
2023-05-08T19:05:11.000Z,93
2023-05-08T19:07:56.000Z,92.6
2023-05-08T19:10:41.000Z,93.2
2023-05-08T19:13:25.000Z,92.8
2023-05-08T19:16:10.000Z,92.6
2023-05-08T19:18:55.000Z,93.9
2023-05-08T19:21:39.000Z,94.6
2023-05-08T19:24:24.000Z,94.6
2023-05-08T19:25:42.000Z,93.8
2023-05-08T19:27:09.000Z,93.8
2023-05-08T19:29:53.000Z,93.9
2023-05-08T19:32:38.000Z,94
2023-05-08T19:35:23.000Z,94.3
2023-05-08T19:38:07.000Z,95.7
2023-05-08T19:40:52.000Z,94.9
2023-05-08T19:43:36.000Z,94.8
2023-05-08T19:46:21.000Z,94.8
2023-05-08T19:49:06.000Z,95
2023-05-08T19:51:50.000Z,95
2023-05-08T19:53:08.000Z,96
2023-05-08T19:54:35.000Z,96.6
2023-05-08T19:57:20.000Z,96.5
2023-05-08T20:00:04.000Z,96.3
2023-05-08T20:02:49.000Z,96
2023-05-08T20:05:34.000Z,95.6
2023-05-08T20:08:18.000Z,95.3
2023-05-08T20:11:03.000Z,95.5
2023-05-08T20:13:47.000Z,95.7
2023-05-08T20:16:32.000Z,95.8
2023-05-08T20:19:17.000Z,96.1
2023-05-08T20:20:35.000Z,95.8
2023-05-08T20:22:01.000Z,95.8
2023-05-08T20:24:46.000Z,95.8
2023-05-08T20:27:31.000Z,95.8
2023-05-08T20:30:15.000Z,96
2023-05-08T20:33:00.000Z,96.2
2023-05-08T20:35:45.000Z,96.3
2023-05-08T20:38:29.000Z,96.6
2023-05-08T20:41:14.000Z,97
2023-05-08T20:44:15.000Z,97
2023-05-08T20:47:00.000Z,96.9
2023-05-08T20:48:17.000Z,96.8
2023-05-08T20:49:44.000Z,96.9
2023-05-08T20:52:29.000Z,97.2
2023-05-08T20:55:13.000Z,97.3
2023-05-08T20:57:58.000Z,97.6
2023-05-08T21:00:43.000Z,98.2
2023-05-08T21:03:27.000Z,98.4
2023-05-08T21:06:12.000Z,98.7
2023-05-08T21:08:57.000Z,98.9
2023-05-08T21:11:41.000Z,99.1
2023-05-08T21:14:26.000Z,99.3
2023-05-08T21:15:44.000Z,99.4
2023-05-08T21:17:11.000Z,99.4
2023-05-08T21:19:55.000Z,99.3
2023-05-08T21:22:40.000Z,99.6
2023-05-08T21:25:25.000Z,99.6
2023-05-08T21:28:09.000Z,99.7
2023-05-08T21:30:54.000Z,99.8
2023-05-08T21:33:38.000Z,100
2023-05-08T21:36:23.000Z,100
2023-05-08T21:39:08.000Z,100
2023-05-08T21:41:52.000Z,100
2023-05-08T21:43:10.000Z,100
2023-05-08T21:44:37.000Z,100
2023-05-08T21:47:22.000Z,100
2023-05-08T21:50:06.000Z,100
2023-05-08T21:52:51.000Z,100
2023-05-08T21:55:36.000Z,100
2023-05-08T21:58:20.000Z,100
2023-05-08T22:01:05.000Z,100
2023-05-08T22:03:49.000Z,100
2023-05-08T22:06:34.000Z,100
2023-05-08T22:09:19.000Z,100
2023-05-08T22:10:37.000Z,100
2023-05-08T22:12:03.000Z,100
2023-05-08T22:14:48.000Z,100
2023-05-08T22:17:33.000Z,100
2023-05-08T22:20:17.000Z,100
2023-05-08T22:23:02.000Z,100
2023-05-08T22:25:47.000Z,100
2023-05-08T22:28:31.000Z,100
2023-05-08T22:31:16.000Z,100
2023-05-08T22:34:01.000Z,100
2023-05-08T22:36:45.000Z,100
2023-05-08T22:38:03.000Z,100
2023-05-08T22:39:30.000Z,100
2023-05-08T22:42:14.000Z,100
2023-05-08T22:44:59.000Z,100
2023-05-08T22:47:44.000Z,100
2023-05-08T22:50:28.000Z,100
2023-05-08T22:53:13.000Z,100
2023-05-08T22:55:58.000Z,100
2023-05-08T22:58:42.000Z,100
2023-05-08T23:01:27.000Z,100
2023-05-08T23:04:12.000Z,100
2023-05-08T23:05:29.000Z,100
2023-05-08T23:06:56.000Z,100
2023-05-08T23:09:41.000Z,100
2023-05-08T23:12:25.000Z,100
2023-05-08T23:15:10.000Z,100
2023-05-08T23:17:55.000Z,100
2023-05-08T23:20:39.000Z,100
2023-05-08T23:23:24.000Z,100
2023-05-08T23:26:09.000Z,100
2023-05-08T23:28:53.000Z,100
2023-05-08T23:31:38.000Z,100
2023-05-08T23:32:56.000Z,100
2023-05-08T23:34:23.000Z,100
2023-05-08T23:37:07.000Z,100
2023-05-08T23:39:52.000Z,100
2023-05-08T23:42:37.000Z,100
2023-05-08T23:45:21.000Z,100
2023-05-08T23:48:06.000Z,100
2023-05-08T23:50:50.000Z,100
2023-05-08T23:53:35.000Z,100
2023-05-08T23:56:20.000Z,100
2023-05-08T23:59:04.000Z,100
